Time;durP1;ratioP1;P1;durP2;ratioP2;P2;SDS_P1;SDS_P2;PMS_P1;PMS_P2;Temp;Humidity;BMP_temperature;BMP_pressure;BME280_temperature;BME280_humidity;BME280_pressure;Samples;Min_cycle;Max_cycle;Signal;HPM_P1;HPM_P2
2024/02/07 00:00:10;;;;;;;9.30;4.20;;;;;;;-147.86;100.00;-4012.50;105895;1254;60119;-60
2024/02/07 00:02:39;;;;;;;5.50;3.20;;;;;;;-147.86;100.00;-4437.21;105861;1253;70789;-61
2024/02/07 00:05:07;;;;;;;11.00;3.80;;;;;;;-147.86;100.00;-4533.15;105826;1255;63040;-60
2024/02/07 00:07:37;;;;;;;9.40;3.20;;;;;;;-147.86;100.00;-4712.62;105879;1254;71639;-58
2024/02/07 00:10:06;;;;;;;11.60;3.70;;;;;;;-147.86;100.00;-5201.84;105727;1256;59727;-59
2024/02/07 00:12:34;;;;;;;11.40;3.70;;;;;;;-147.86;100.00;-5353.86;105834;1257;59931;-60
2024/02/07 00:15:04;;;;;;;10.10;3.50;;;;;;;-147.86;100.00;-5575.06;105849;1256;71071;-60
2024/02/07 00:17:32;;;;;;;12.70;3.40;;;;;;;-147.86;100.00;-6076.59;105859;1252;63653;-57
2024/02/07 00:20:00;;;;;;;7.90;3.30;;;;;;;-147.86;100.00;-6830.13;105872;1257;70877;-58
2024/02/07 00:22:29;;;;;;;6.50;3.50;;;;;;;-147.86;100.00;-7701.76;105848;1260;59745;-58
2024/02/07 00:24:57;;;;;;;8.00;3.80;;;;;;;-147.86;100.00;-8557.33;105864;1255;59644;-58
2024/02/07 00:27:26;;;;;;;4.60;2.80;;;;;;;-147.86;100.00;-9555.28;105866;1257;72226;-59
2024/02/07 00:29:53;;;;;;;7.40;2.90;;;;;;;-147.86;100.00;-10462.21;105859;1254;62225;-58
2024/02/07 00:32:21;;;;;;;10.20;3.40;;;;;;;-147.86;100.00;-11166.20;105840;1257;71076;-58
2024/02/07 00:34:49;;;;;;;6.40;3.50;;;;;;;-147.86;100.00;-11875.46;105806;1257;60434;-54
2024/02/07 00:37:16;;;;;;;5.50;3.00;;;;;;;-147.86;100.00;-12441.00;105854;1255;59730;-58
2024/02/07 00:39:45;;;;;;;13.50;3.70;;;;;;;-147.86;100.00;-12880.64;105854;1255;71806;-60
2024/02/07 00:42:13;;;;;;;12.80;3.50;;;;;;;-147.86;100.00;-13445.26;105879;1257;63130;-57
2024/02/07 00:44:40;;;;;;;9.60;3.50;;;;;;;-147.86;100.00;-14051.87;105823;1253;72647;-59
2024/02/07 00:47:08;;;;;;;8.00;3.30;;;;;;;-147.86;100.00;-14742.08;105800;1255;60059;-57
2024/02/07 00:49:35;;;;;;;6.90;3.20;;;;;;;-147.86;100.00;-15328.42;105879;1254;59544;-56
2024/02/07 00:52:04;;;;;;;11.20;3.70;;;;;;;-147.86;100.00;-15879.19;105841;1256;71816;-61
2024/02/07 00:54:32;;;;;;;7.80;3.40;;;;;;;-147.86;100.00;-16505.84;105861;1255;63107;-60
2024/02/07 00:57:00;;;;;;;8.10;3.00;;;;;;;-147.86;100.00;-17079.18;105843;1255;71591;-59
2024/02/07 00:59:28;;;;;;;12.60;3.20;;;;;;;-147.86;100.00;-17485.81;105859;1254;60783;-59
2024/02/07 01:01:55;;;;;;;10.10;3.70;;;;;;;-147.86;100.00;-17609.17;105818;1257;59752;-59
2024/02/07 01:04:23;;;;;;;4.70;3.30;;;;;;;-147.86;100.00;-17609.17;105857;1254;71465;-61
2024/02/07 01:06:51;;;;;;;5.40;3.10;;;;;;;-147.86;100.00;-17609.17;105839;1264;63191;-59
2024/02/07 01:09:20;;;;;;;6.10;3.60;;;;;;;-147.86;100.00;-17609.17;105863;1254;71427;-59
2024/02/07 01:11:48;;;;;;;10.30;3.90;;;;;;;-147.86;100.00;-17609.17;105866;1254;59894;-61
2024/02/07 01:14:16;;;;;;;6.90;3.40;;;;;;;-147.86;100.00;-17609.17;105946;1257;59708;-58
2024/02/07 01:16:44;;;;;;;6.20;3.00;;;;;;;-147.86;100.00;-17609.17;105882;1257;72991;-59
2024/02/07 01:19:12;;;;;;;7.80;3.10;;;;;;;-147.86;100.00;-17609.17;105849;1258;64320;-62
2024/02/07 01:21:41;;;;;;;7.70;3.10;;;;;;;-147.86;100.00;-17609.17;105871;1257;71395;-61
2024/02/07 01:24:09;;;;;;;7.80;2.60;;;;;;;-147.86;100.00;-17609.17;105877;1257;61627;-58
2024/02/07 01:26:37;;;;;;;6.20;3.20;;;;;;;-147.86;100.00;-17609.17;105838;1254;59762;-59
2024/02/07 01:29:05;;;;;;;8.50;3.60;;;;;;;-147.86;100.00;-17609.17;105782;1257;71857;-60
2024/02/07 01:31:33;;;;;;;8.10;3.30;;;;;;;-147.86;100.00;-17609.17;105858;1257;63274;-59
2024/02/07 01:34:01;;;;;;;12.60;3.00;;;;;;;-147.86;100.00;-17609.17;105852;1254;71503;-61
2024/02/07 01:36:30;;;;;;;5.70;2.80;;;;;;;-147.86;100.00;-17609.17;105840;1254;59675;-58
2024/02/07 01:38:59;;;;;;;5.80;2.70;;;;;;;-147.86;100.00;-17609.17;105892;1255;59887;-61
2024/02/07 01:41:29;;;;;;;6.50;2.80;;;;;;;-147.86;100.00;-17609.17;105851;1257;72520;-59
2024/02/07 01:43:57;;;;;;;6.00;3.20;;;;;;;-147.86;100.00;-17609.17;105826;1254;64413;-57
2024/02/07 01:46:27;;;;;;;5.90;3.00;;;;;;;-147.86;100.00;-17609.17;105802;1254;71437;-60
2024/02/07 01:48:55;;;;;;;8.10;2.90;;;;;;;-147.86;100.00;-17609.17;105876;1254;59755;-60
2024/02/07 01:51:23;;;;;;;10.30;3.30;;;;;;;-147.86;100.00;-17609.17;105835;1254;59720;-59
2024/02/07 01:53:50;;;;;;;8.70;3.10;;;;;;;-147.86;100.00;-17609.17;105664;1255;71751;-58
2024/02/07 01:56:19;;;;;;;6.10;3.10;;;;;;;-147.86;100.00;-17609.17;105919;1253;63857;-61
2024/02/07 01:58:46;;;;;;;4.20;2.70;;;;;;;-147.86;100.00;-17609.17;105895;1254;71448;-59
2024/02/07 02:01:14;;;;;;;5.70;3.30;;;;;;;-147.86;100.00;-17609.17;105816;1257;60432;-57
2024/02/07 02:03:42;;;;;;;10.10;3.40;;;;;;;-147.86;100.00;-17609.17;105801;1257;59635;-58
2024/02/07 02:06:10;;;;;;;10.40;3.40;;;;;;;-147.86;100.00;-17609.17;105679;1261;71788;-58
2024/02/07 02:08:38;;;;;;;6.60;3.30;;;;;;;-147.86;100.00;-17609.17;105853;1256;63107;-61
2024/02/07 02:11:07;;;;;;;16.90;3.50;;;;;;;-147.86;100.00;-17609.17;105857;1260;72614;-58
2024/02/07 02:13:35;;;;;;;9.60;2.90;;;;;;;-147.86;100.00;-17609.17;105912;1258;60476;-59
2024/02/07 02:16:03;;;;;;;9.00;3.40;;;;;;;-147.86;100.00;-17609.17;105693;1260;59708;-56
2024/02/07 02:18:31;;;;;;;8.60;3.10;;;;;;;-147.86;100.00;-17609.17;105787;1257;73221;-62
2024/02/07 02:21:00;;;;;;;6.20;3.40;;;;;;;-147.86;100.00;-17609.17;105643;1257;64431;-60
2024/02/07 02:23:54;;;;;;;10.00;3.50;;;;;;;-147.86;100.00;-17609.17;105575;1258;72641;-61
2024/02/07 02:26:41;;;;;;;10.20;3.70;;;;;;;-147.86;100.00;-17609.17;105619;1258;59762;-59
2024/02/07 02:29:20;;;;;;;7.00;3.50;;;;;;;-147.86;100.00;-17609.17;105868;1254;60592;-59
2024/02/07 02:31:51;;;;;;;9.70;3.20;;;;;;;-147.86;100.00;-17609.17;105870;1257;71795;-56
2024/02/07 02:34:20;;;;;;;6.70;3.00;;;;;;;-147.86;100.00;-17609.17;105917;1257;63129;-61
2024/02/07 02:36:47;;;;;;;14.60;3.40;;;;;;;-147.86;100.00;-17609.17;105691;1259;72673;-61
2024/02/07 02:39:17;;;;;;;10.40;3.60;;;;;;;-147.86;100.00;-17609.17;105831;1258;59740;-56
2024/02/07 02:41:44;;;;;;;10.20;3.00;;;;;;;-147.86;100.00;-17609.17;105916;1254;59634;-56
2024/02/07 02:44:12;;;;;;;4.80;2.80;;;;;;;-147.86;100.00;-17609.17;105814;1257;72063;-59
2024/02/07 02:46:40;;;;;;;7.00;3.00;;;;;;;-147.86;100.00;-17609.17;105723;1254;63112;-58
2024/02/07 02:49:07;;;;;;;6.20;3.00;;;;;;;-147.86;100.00;-17609.17;105857;1254;72562;-58
2024/02/07 02:51:37;;;;;;;8.20;3.20;;;;;;;-147.86;100.00;-17609.17;105806;1253;61630;-60
2024/02/07 02:54:06;;;;;;;10.90;3.00;;;;;;;-147.86;100.00;-17609.17;105868;1257;59669;-58
2024/02/07 02:56:34;;;;;;;5.30;3.40;;;;;;;-147.86;100.00;-17609.17;105830;1257;73009;-59
2024/02/07 02:59:05;;;;;;;6.00;2.30;;;;;;;-147.86;100.00;-17609.17;105869;1254;62720;-59
2024/02/07 03:01:35;;;;;;;4.80;2.80;;;;;;;-147.86;100.00;-17609.17;105861;1254;71339;-59
2024/02/07 03:04:04;;;;;;;5.10;2.60;;;;;;;-147.86;100.00;-17609.17;105859;1253;60485;-60
2024/02/07 03:06:50;;;;;;;7.70;2.90;;;;;;;-147.86;100.00;-17609.17;105903;1260;60438;-62
2024/02/07 03:09:22;;;;;;;10.10;3.60;;;;;;;-147.86;100.00;-17609.17;105879;1252;72706;-60
2024/02/07 03:11:50;;;;;;;7.30;3.00;;;;;;;-147.86;100.00;-17609.17;105883;1253;63134;-61
2024/02/07 03:14:18;;;;;;;5.90;3.00;;;;;;;-147.86;100.00;-17609.17;105867;1257;71627;-60
2024/02/07 03:16:46;;;;;;;7.40;3.00;;;;;;;-147.86;100.00;-17609.17;105867;1255;60825;-58
2024/02/07 03:19:14;;;;;;;7.10;3.10;;;;;;;-147.86;100.00;-17609.17;105887;1257;60418;-61
2024/02/07 03:21:43;;;;;;;6.00;3.10;;;;;;;-147.86;100.00;-17609.17;105875;1258;72632;-61
2024/02/07 03:24:11;;;;;;;5.60;2.60;;;;;;;-147.86;100.00;-17601.17;105898;1254;63194;-59
2024/02/07 03:26:39;;;;;;;11.70;3.30;;;;;;;-147.86;100.00;-17542.77;105776;1254;72575;-60
2024/02/07 03:29:08;;;;;;;5.30;3.10;;;;;;;-147.86;100.00;-17427.98;105854;1254;61636;-60
2024/02/07 03:31:37;;;;;;;10.70;3.40;;;;;;;-147.86;100.00;-17209.78;105885;1254;60351;-58
2024/02/07 03:34:06;;;;;;;7.00;3.60;;;;;;;-147.86;100.00;-16846.68;105836;1255;72552;-57
2024/02/07 03:53:46;;;;;;;9.20;4.10;;;;;;;-147.86;100.00;-2153.10;102781;1290;600205;-60
2024/02/07 03:56:14;;;;;;;9.10;3.50;;;;;;;-147.86;100.00;-9412.45;105136;1270;60812;-60
2024/02/07 03:58:42;;;;;;;8.40;3.60;;;;;;;-147.86;100.00;-7453.88;105166;1269;59428;-56
2024/02/07 04:01:13;;;;;;;7.40;3.70;;;;;;;-147.86;100.00;-6329.77;105165;1270;70989;-61
2024/02/07 04:03:41;;;;;;;10.10;3.80;;;;;;;-147.86;100.00;-5579.61;105198;1270;63245;-59
2024/02/07 04:06:08;;;;;;;10.40;3.90;;;;;;;-147.86;100.00;-4563.29;105073;1270;71365;-55
2024/02/07 04:08:36;;;;;;;7.30;3.80;;;;;;;-147.86;100.00;-3753.24;104914;1270;358205;-59
2024/02/07 04:11:12;;;;;;;5.40;3.30;;;;;;;-147.86;100.00;-3144.93;105184;1267;59333;-59
2024/02/07 05:17:19;;;;;;;;;;;;;;;-147.86;100.00;-9707.12;105602;1257;59877;-59
2024/02/07 05:19:49;;;;;;;5.50;2.80;;;;;;;-147.86;100.00;-8581.17;105614;1260;60863;-59
2024/02/07 05:22:18;;;;;;;5.30;3.70;;;;;;;-147.86;100.00;-8188.97;105633;1258;71748;-59
2024/02/07 05:24:47;;;;;;;18.20;3.60;;;;;;;-147.86;100.00;-7696.26;105659;1261;63246;-59
2024/02/07 05:27:16;;;;;;;16.40;4.60;;;;;;;-147.86;100.00;-7239.43;105574;1257;71461;-60
2024/02/07 05:29:44;;;;;;;6.60;3.50;;;;;;;-147.86;100.00;-7041.90;105590;1260;59755;-59
2024/02/07 05:32:12;;;;;;;6.30;3.50;;;;;;;-147.86;100.00;-6694.77;105520;1257;59679;-56
2024/02/07 05:34:40;;;;;;;3.80;2.90;;;;;;;-147.86;100.00;-6441.55;105611;1257;71807;-61
2024/02/07 05:37:08;;;;;;;7.30;2.80;;;;;;;-147.86;100.00;-6191.79;105615;1259;63114;-60
2024/02/07 05:39:37;;;;;;;4.10;3.50;;;;;;;-147.86;100.00;-6214.24;105661;1258;71731;-60
2024/02/07 05:42:06;;;;;;;8.40;3.50;;;;;;;-147.86;100.00;-6694.02;105641;1257;59774;-59
2024/02/07 05:44:35;;;;;;;7.50;4.30;;;;;;;-147.86;100.00;-7260.33;105576;1257;59612;-59
2024/02/07 05:47:02;;;;;;;11.90;3.70;;;;;;;-147.86;100.00;-7602.39;105575;1263;72139;-56
2024/02/07 05:49:30;;;;;;;9.00;4.10;;;;;;;-147.86;100.00;-7827.34;105606;1261;63291;-57
2024/02/07 05:51:58;;;;;;;6.20;3.80;;;;;;;-147.86;100.00;-8200.66;105613;1258;71837;-58
2024/02/07 05:54:29;;;;;;;5.80;3.70;;;;;;;-147.86;100.00;-9110.58;105498;1262;59759;-59
2024/02/07 05:56:57;;;;;;;6.60;3.10;;;;;;;-147.86;100.00;-9562.98;105625;1260;60015;-59
2024/02/07 05:59:25;;;;;;;9.80;3.30;;;;;;;-147.86;100.00;-10038.88;105559;1257;71814;-62
2024/02/07 06:01:53;;;;;;;6.40;3.20;;;;;;;-147.86;100.00;-10650.27;105613;1261;63175;-60
2024/02/07 06:04:21;;;;;;;5.50;3.30;;;;;;;-147.86;100.00;-11168.50;105617;1258;71374;-60
2024/02/07 06:06:49;;;;;;;9.10;3.30;;;;;;;-147.86;100.00;-11614.07;105639;1257;59783;-57
2024/02/07 06:09:17;;;;;;;8.30;3.80;;;;;;;-147.86;100.00;-11948.42;105615;1261;59644;-58
2024/02/07 06:11:45;;;;;;;6.50;2.70;;;;;;;-147.86;100.00;-12471.50;105661;1257;71876;-59
2024/02/07 06:14:16;;;;;;;5.80;3.20;;;;;;;-147.86;100.00;-13052.78;105571;1257;64530;-60
2024/02/07 06:16:44;;;;;;;11.20;3.50;;;;;;;-147.86;100.00;-13937.25;105544;1264;71455;-59
2024/02/07 06:19:12;;;;;;;5.30;3.10;;;;;;;-147.86;100.00;-14380.21;105488;1263;60626;-60
2024/02/07 06:21:40;;;;;;;9.40;3.20;;;;;;;-147.86;100.00;-14847.00;105618;1264;59664;-57
2024/02/07 06:24:08;;;;;;;9.00;2.90;;;;;;;-147.86;100.00;-15054.92;105576;1258;71730;-59
2024/02/07 06:26:36;;;;;;;9.90;3.20;;;;;;;-147.86;100.00;-15541.34;105667;1257;64439;-60
2024/02/07 06:29:03;;;;;;;12.70;3.20;;;;;;;-147.86;100.00;-16404.43;105558;1260;71525;-56
2024/02/07 06:31:31;;;;;;;7.10;2.50;;;;;;;-147.86;100.00;-16893.73;105553;1264;59656;-61
2024/02/07 06:33:59;;;;;;;5.30;2.70;;;;;;;-147.86;100.00;-17169.40;105592;1262;59650;-60
2024/02/07 06:36:27;;;;;;;6.10;3.30;;;;;;;-147.86;100.00;-17323.61;105670;1260;71827;-58
2024/02/07 06:38:54;;;;;;;4.50;2.80;;;;;;;-147.86;100.00;-17520.12;105895;1257;64481;-57
2024/02/07 06:41:23;;;;;;;7.60;2.90;;;;;;;-147.86;100.00;-17609.17;105889;1254;70814;-59
2024/02/07 06:43:51;;;;;;;5.20;2.70;;;;;;;-147.86;100.00;-17609.17;105837;1254;59704;-56
2024/02/07 06:46:18;;;;;;;10.10;3.10;;;;;;;-147.86;100.00;-17609.17;105858;1254;59961;-58
2024/02/07 06:48:46;;;;;;;6.30;2.60;;;;;;;-147.86;100.00;-17609.17;105874;1255;73154;-58
2024/02/07 06:51:14;;;;;;;4.50;2.80;;;;;;;-147.86;100.00;-17609.17;105906;1252;62190;-60
2024/02/07 06:53:42;;;;;;;6.10;2.90;;;;;;;-147.86;100.00;-17609.17;105956;1256;72633;-61
2024/02/07 06:56:10;;;;;;;12.00;3.30;;;;;;;-147.86;100.00;-17609.17;105814;1257;59756;-58
2024/02/07 06:58:38;;;;;;;5.50;2.80;;;;;;;-147.86;100.00;-17609.17;105945;1254;59645;-61
2024/02/07 07:01:06;;;;;;;11.00;2.70;;;;;;;-147.86;100.00;-17609.17;105867;1254;71738;-60
2024/02/07 07:03:34;;;;;;;13.90;3.10;;;;;;;-147.86;100.00;-17609.17;105911;1255;63499;-60
2024/02/07 07:06:01;;;;;;;6.80;2.80;;;;;;;-147.86;100.00;-17609.17;105885;1255;71334;-58
2024/02/07 07:08:30;;;;;;;7.30;2.70;;;;;;;-147.86;100.00;-17609.17;105823;1254;60968;-61
2024/02/07 07:10:57;;;;;;;10.50;2.80;;;;;;;-147.86;100.00;-17609.17;105850;1253;59888;-58
2024/02/07 07:13:25;;;;;;;8.40;3.00;;;;;;;-147.86;100.00;-17609.17;105846;1254;74958;-61
2024/02/07 07:15:53;;;;;;;7.10;2.50;;;;;;;-147.86;100.00;-17609.17;105880;1254;65096;-61
2024/02/07 07:18:22;;;;;;;8.00;2.70;;;;;;;-147.86;100.00;-17609.17;105847;1254;74634;-62
2024/02/07 07:20:50;;;;;;;6.10;2.60;;;;;;;-147.86;100.00;-17609.17;105895;1254;61265;-61
2024/02/07 07:23:18;;;;;;;4.80;2.20;;;;;;;-147.86;100.00;-17609.17;105892;1256;61225;-61
2024/02/07 07:25:46;;;;;;;6.10;2.70;;;;;;;-147.86;100.00;-17609.17;105920;1257;75050;-59
2024/02/07 07:28:13;;;;;;;3.80;2.60;;;;;;;-147.86;100.00;-17609.17;105676;1257;64722;-61
2024/02/07 07:30:42;;;;;;;6.60;2.60;;;;;;;-147.86;100.00;-17609.17;105898;1255;74819;-57
2024/02/07 07:33:10;;;;;;;7.00;3.10;;;;;;;-147.86;100.00;-17609.17;105850;1253;59984;-55
2024/02/07 07:35:38;;;;;;;7.30;3.20;;;;;;;-147.86;100.00;-17609.17;105862;1254;60329;-54
2024/02/07 07:38:08;;;;;;;5.40;2.50;;;;;;;-147.86;100.00;-17609.17;105906;1256;73882;-55
2024/02/07 07:40:39;;;;;;;9.20;2.70;;;;;;;-147.86;100.00;-17609.17;105858;1254;63727;-58
2024/02/07 07:43:07;;;;;;;7.20;2.50;;;;;;;-147.86;100.00;-17609.17;105885;1256;73171;-57
2024/02/07 07:45:35;;;;;;;8.40;3.20;;;;;;;-147.86;100.00;-17609.17;105874;1257;63792;-60
2024/02/07 07:48:03;;;;;;;3.50;2.10;;;;;;;-147.86;100.00;-17609.17;105826;1257;60785;-59
2024/02/07 07:50:32;;;;;;;4.10;2.30;;;;;;;-147.86;100.00;-17609.17;105870;1254;73738;-60
2024/02/07 07:53:00;;;;;;;7.40;2.60;;;;;;;-147.86;100.00;-17609.17;105964;1256;64803;-62
2024/02/07 07:55:28;;;;;;;8.20;2.80;;;;;;;-147.86;100.00;-17609.17;105949;1254;73712;-61
2024/02/07 07:57:56;;;;;;;4.90;2.60;;;;;;;-147.86;100.00;-17609.17;105828;1254;61413;-57
2024/02/07 08:00:23;;;;;;;3.60;2.40;;;;;;;-147.86;100.00;-17609.17;105867;1257;62199;-61
2024/02/07 08:02:51;;;;;;;3.80;2.50;;;;;;;-147.86;100.00;-17609.17;105859;1257;71217;-60
2024/02/07 08:05:19;;;;;;;6.90;3.10;;;;;;;-147.86;100.00;-17609.17;105771;1256;64629;-63
2024/02/07 08:07:47;;;;;;;4.80;3.00;;;;;;;-147.86;100.00;-17609.17;105631;1254;71289;-55
2024/02/07 08:10:15;;;;;;;8.30;2.50;;;;;;;-147.86;100.00;-17609.17;105804;1258;60549;-58
2024/02/07 08:12:43;;;;;;;7.20;2.60;;;;;;;-147.86;100.00;-17609.17;105883;1256;60364;-56
2024/02/07 08:15:11;;;;;;;7.70;2.40;;;;;;;-147.86;100.00;-17609.17;105884;1256;73838;-56
2024/02/07 08:17:39;;;;;;;6.00;2.80;;;;;;;-147.86;100.00;-17609.17;105859;1257;64304;-60
2024/02/07 08:20:07;;;;;;;4.60;2.60;;;;;;;-147.86;100.00;-17609.17;105895;1253;73941;-59
2024/02/07 08:22:35;;;;;;;4.80;2.70;;;;;;;-147.86;100.00;-17609.17;105906;1256;60816;-57
2024/02/07 08:25:04;;;;;;;2.90;2.10;;;;;;;-147.86;100.00;-17609.17;105901;1254;60527;-61
2024/02/07 08:27:31;;;;;;;3.70;2.70;;;;;;;-147.86;100.00;-17609.17;105904;1257;72839;-58
2024/02/07 08:29:59;;;;;;;4.10;2.90;;;;;;;-147.86;100.00;-17609.17;105874;1254;66726;-54
2024/02/07 08:32:27;;;;;;;4.00;2.50;;;;;;;-147.86;100.00;-17609.17;105903;1254;72923;-58
2024/02/07 08:34:54;;;;;;;6.20;2.70;;;;;;;-147.86;100.00;-17609.17;105904;1256;60543;-58
2024/02/07 08:37:26;;;;;;;3.60;2.30;;;;;;;-147.86;100.00;-17609.17;105867;1257;62419;-61
2024/02/07 08:39:54;;;;;;;5.60;2.60;;;;;;;-147.86;100.00;-17609.17;105927;1256;73845;-57
2024/02/07 08:42:22;;;;;;;5.00;2.20;;;;;;;-147.86;100.00;-17609.17;105939;1256;64361;-61
2024/02/07 08:44:49;;;;;;;5.00;2.10;;;;;;;-147.86;100.00;-17609.17;105859;1257;72075;-61
2024/02/07 08:47:17;;;;;;;5.90;2.50;;;;;;;-147.86;100.00;-17609.17;105869;1257;60487;-60
2024/02/07 08:49:45;;;;;;;5.70;3.00;;;;;;;-147.86;100.00;-17609.17;105835;1253;61856;-60
2024/02/07 08:52:12;;;;;;;5.10;2.40;;;;;;;-147.86;100.00;-17609.17;105925;1252;74968;-57
2024/02/07 08:54:40;;;;;;;4.70;2.60;;;;;;;-147.86;100.00;-17609.17;105829;1257;63217;-59
2024/02/07 08:57:08;;;;;;;5.50;2.40;;;;;;;-147.86;100.00;-17609.17;105862;1256;72557;-57
2024/02/07 08:59:35;;;;;;;5.10;2.90;;;;;;;-147.86;100.00;-17609.17;105920;1257;62355;-58
2024/02/07 09:02:04;;;;;;;3.50;2.10;;;;;;;-147.86;100.00;-17609.17;105913;1256;61030;-57
2024/02/07 09:04:32;;;;;;;2.40;2.20;;;;;;;-147.86;100.00;-17609.17;105930;1257;75035;-60
2024/02/07 09:07:00;;;;;;;7.20;2.50;;;;;;;-147.86;100.00;-17609.17;105922;1254;65722;-62
2024/02/07 09:09:28;;;;;;;5.30;2.30;;;;;;;-147.86;100.00;-17609.17;105794;1254;74877;-63
2024/02/07 09:11:55;;;;;;;4.20;2.40;;;;;;;-147.86;100.00;-17609.17;105910;1256;60459;-61
2024/02/07 09:14:23;;;;;;;5.50;2.70;;;;;;;-147.86;100.00;-17609.17;105889;1256;61170;-58
2024/02/07 09:16:51;;;;;;;8.90;2.80;;;;;;;-147.86;100.00;-17609.17;105856;1254;73826;-57
2024/02/07 09:19:18;;;;;;;3.20;2.60;;;;;;;-147.86;100.00;-17609.17;105859;1254;62494;-59
2024/02/07 09:21:46;;;;;;;4.60;1.90;;;;;;;-147.86;100.00;-17609.17;105903;1254;72141;-57
2024/02/07 09:24:14;;;;;;;7.40;2.20;;;;;;;-147.86;100.00;-17609.17;105925;1252;61792;-58
2024/02/07 09:26:41;;;;;;;9.80;2.30;;;;;;;-147.86;100.00;-17609.17;105855;1253;60646;-57
2024/02/07 09:29:09;;;;;;;9.70;2.60;;;;;;;-147.86;100.00;-17609.17;105837;1257;74614;-60
2024/02/07 09:31:37;;;;;;;4.60;2.50;;;;;;;-147.86;100.00;-17609.17;105855;1255;63645;-59
2024/02/07 09:34:05;;;;;;;4.20;2.20;;;;;;;-147.86;100.00;-17609.17;105802;1254;73688;-56
2024/02/07 09:36:38;;;;;;;9.70;2.70;;;;;;;-147.86;100.00;-17609.17;105879;1254;62058;-60
2024/02/07 09:39:05;;;;;;;8.60;2.10;;;;;;;-147.86;100.00;-17609.17;105948;1254;60484;-60
2024/02/07 09:41:33;;;;;;;7.00;2.30;;;;;;;-147.86;100.00;-17609.17;105844;1254;73756;-60
2024/02/07 09:44:04;;;;;;;7.20;2.30;;;;;;;-147.86;100.00;-17609.17;105882;1257;64296;-59
2024/02/07 09:47:37;;;;;;;6.20;2.30;;;;;;;-147.86;100.00;-17609.17;102631;1292;600261;-58
2024/02/07 09:50:08;;;;;;;6.60;2.10;;;;;;;-147.86;100.00;-17609.17;104771;1269;61141;-54
2024/02/07 09:52:37;;;;;;;4.90;2.30;;;;;;;-147.86;100.00;-17609.17;104755;1267;60055;-58
2024/02/07 09:55:07;;;;;;;4.20;1.90;;;;;;;-147.86;100.00;-17609.17;104680;1267;73355;-58
2024/02/07 09:57:35;;;;;;;4.90;2.10;;;;;;;-147.86;100.00;-17609.17;104784;1268;64755;-58
2024/02/07 10:00:04;;;;;;;10.10;2.50;;;;;;;-147.86;100.00;-17609.17;104816;1267;241607;-59
2024/02/07 10:02:32;;;;;;;3.20;2.00;;;;;;;-147.86;100.00;-17609.17;105262;1263;59337;-56
2024/02/07 10:05:00;;;;;;;6.00;2.50;;;;;;;-147.86;100.00;-17609.17;105109;1263;62041;-59
2024/02/07 10:07:28;;;;;;;3.10;2.00;;;;;;;-147.86;99.13;-17609.17;105096;1264;72574;-58
2024/02/07 10:09:57;;;;;;;7.10;2.60;;;;;;;-147.86;98.47;-17609.17;105123;1268;64738;-57
2024/02/07 10:12:25;;;;;;;3.40;1.80;;;;;;;-147.86;98.13;-17609.17;105156;1264;74949;-60
2024/02/07 10:14:53;;;;;;;4.40;1.90;;;;;;;-147.86;97.70;-17609.17;105242;1267;62301;-57
2024/02/07 10:17:22;;;;;;;7.40;2.20;;;;;;;-147.86;97.26;-17609.17;105215;1263;61143;-58
2024/02/07 10:19:49;;;;;;;8.10;2.10;;;;;;;-147.86;97.30;-17609.17;105152;1263;75316;-56
2024/02/07 10:22:17;;;;;;;6.80;1.90;;;;;;;-147.86;97.16;-17609.17;105154;1267;64342;-56
2024/02/07 10:24:46;;;;;;;4.90;2.20;;;;;;;-147.86;97.23;-17609.17;105208;1264;72546;-57
2024/02/07 10:27:18;;;;;;;7.00;2.20;;;;;;;-147.86;96.88;-17609.17;105680;1259;59686;-58
2024/02/07 10:29:46;;;;;;;7.80;2.10;;;;;;;-147.86;96.31;-17609.17;105683;1260;62314;-58
2024/02/07 10:32:17;;;;;;;4.30;1.70;;;;;;;-147.86;96.42;-17609.17;105680;1259;72918;-58
2024/02/07 10:34:50;;;;;;;5.40;2.70;;;;;;;-147.86;96.39;-17609.17;105659;1256;64705;-60
2024/02/07 10:37:24;;;;;;;2.00;1.80;;;;;;;-147.86;95.94;-17609.17;105703;1254;72545;-57
2024/02/07 10:40:03;;;;;;;3.60;1.90;;;;;;;-147.86;95.59;-17609.17;105683;1259;60452;-56
2024/02/07 10:42:31;;;;;;;3.10;1.80;;;;;;;-147.86;94.96;-17609.17;105656;1259;59965;-54
2024/02/07 10:45:07;;;;;;;6.30;1.80;;;;;;;-147.86;94.47;-17609.17;105637;1254;75132;-57
2024/02/07 10:47:35;;;;;;;;;;;;;;;-147.86;94.17;-17609.17;105707;1253;66616;-60
2024/02/07 10:50:05;;;;;;;9.00;1.80;;;;;;;-147.86;93.81;-17609.17;105727;1257;73710;-56
2024/02/07 10:52:34;;;;;;;4.10;1.90;;;;;;;-147.86;93.43;-17609.17;105615;1254;62077;-60
2024/02/07 10:55:07;;;;;;;6.20;1.80;;;;;;;-147.86;93.50;-17609.17;105661;1253;59928;-57
2024/02/07 10:57:38;;;;;;;3.40;1.90;;;;;;;-147.86;93.69;-17609.17;105638;1260;75694;-58
2024/02/07 11:00:07;;;;;;;6.00;1.90;;;;;;;-147.86;93.90;-17609.17;105659;1259;66785;-58
2024/02/07 11:02:35;;;;;;;3.20;1.70;;;;;;;-147.86;94.00;-17609.17;105693;1259;73502;-60
2024/02/07 11:05:05;;;;;;;4.00;1.70;;;;;;;-147.86;94.17;-17609.17;105627;1259;60002;-55
2024/02/07 11:07:32;;;;;;;3.60;1.80;;;;;;;-147.86;94.40;-17609.17;105694;1254;60439;-57
2024/02/07 11:10:01;;;;;;;13.00;2.20;;;;;;;-147.86;94.41;-17609.17;105568;1260;74859;-58
2024/02/07 11:12:30;;;;;;;30.60;3.20;;;;;;;-147.86;94.67;-17609.17;105729;1259;64331;-55
2024/02/07 11:14:58;;;;;;;6.20;1.70;;;;;;;-147.86;95.04;-17609.17;105687;1257;73585;-57
2024/02/07 11:17:26;;;;;;;15.80;2.80;;;;;;;-147.86;95.04;-17609.17;105695;1259;59975;-58
2024/02/07 11:19:54;;;;;;;11.10;2.30;;;;;;;-147.86;95.50;-17609.17;105664;1254;59558;-59
2024/02/07 11:22:37;;;;;;;8.60;1.90;;;;;;;-147.86;95.60;-17609.17;105672;1254;71247;-53
2024/02/07 11:25:06;;;;;;;4.90;2.30;;;;;;;-147.86;96.25;-17609.17;105720;1254;62549;-57
2024/02/07 11:27:41;;;;;;;5.30;2.20;;;;;;;-147.86;96.48;-17609.17;105680;1254;72516;-58
2024/02/07 11:30:10;;;;;;;7.70;2.00;;;;;;;-147.86;96.76;-17609.17;105671;1259;63701;-53
2024/02/07 11:32:41;;;;;;;7.70;2.50;;;;;;;-147.86;97.01;-17609.17;105674;1253;62053;-59
2024/02/07 11:35:11;;;;;;;5.60;1.70;;;;;;;-147.86;96.89;-17609.17;105625;1254;74625;-61
2024/02/07 11:37:39;;;;;;;6.60;2.30;;;;;;;-147.86;97.00;-17609.17;105676;1259;66525;-59
2024/02/07 11:40:09;;;;;;;11.70;2.70;;;;;;;-147.86;97.18;-17609.17;105641;1254;72939;-60
2024/02/07 11:54:07;;;;;;;14.60;2.20;;;;;;;-147.86;99.30;-17609.17;102719;1289;600135;-59
2024/02/07 11:56:35;;;;;;;5.90;1.80;;;;;;;-147.86;99.49;-17609.17;104851;1270;59947;-58
2024/02/07 11:59:03;;;;;;;5.50;1.80;;;;;;;-147.86;99.61;-17609.17;104849;1267;59890;-57
2024/02/07 12:01:31;;;;;;;12.40;1.80;;;;;;;-147.86;99.65;-17609.17;104879;1265;72050;-57
2024/02/07 12:04:03;;;;;;;6.10;2.50;;;;;;;-147.86;99.90;-17609.17;104831;1270;64296;-57
2024/02/07 12:06:32;;;;;;;4.60;1.80;;;;;;;-147.86;99.98;-17609.17;104611;1270;353167;-60
2024/02/07 12:09:00;;;;;;;7.90;2.40;;;;;;;-147.86;100.00;-17609.17;105088;1268;60401;-58
2024/02/07 12:11:30;;;;;;;6.80;2.00;;;;;;;-147.86;100.00;-17609.17;105215;1263;61915;-59
2024/02/07 12:13:58;;;;;;;4.50;2.10;;;;;;;-147.86;100.00;-17609.17;105154;1267;72549;-60
2024/02/07 12:16:26;;;;;;;5.70;2.10;;;;;;;-147.86;100.00;-17609.17;105202;1267;65583;-58
2024/02/07 12:18:54;;;;;;;2.20;1.60;;;;;;;-147.86;99.97;-17609.17;105140;1263;74600;-59
2024/02/07 12:21:22;;;;;;;13.20;2.20;;;;;;;-147.86;99.94;-17609.17;105100;1263;60494;-56
2024/02/07 12:23:52;;;;;;;13.80;2.20;;;;;;;-147.86;100.00;-17609.17;105066;1263;60397;-59
2024/02/07 12:26:26;;;;;;;6.20;2.20;;;;;;;-147.86;99.92;-17609.17;105166;1267;75530;-57
2024/02/07 12:28:55;;;;;;;8.10;1.40;;;;;;;-147.86;99.83;-17609.17;105209;1268;64213;-56
2024/02/07 12:31:24;;;;;;;7.20;1.90;;;;;;;-147.86;99.68;-17609.17;105192;1267;73222;-58
2024/02/07 12:33:53;;;;;;;15.20;2.80;;;;;;;-147.86;99.57;-17609.17;105173;1267;62020;-57